createdAt,value
2023-02-03T00:02:45.844Z,60.7
2023-02-03T00:08:21.455Z,60.8
2023-02-03T00:13:56.734Z,60.6
2023-02-03T00:19:38.899Z,60.9
2023-02-03T00:25:13.989Z,61.1
2023-02-03T00:30:49.271Z,61.2
2023-02-03T00:36:24.316Z,61.6
2023-02-03T00:41:59.462Z,61.7
2023-02-03T00:47:34.960Z,61.7
2023-02-03T00:53:11.089Z,61.3
2023-02-03T00:58:45.990Z,62.1
2023-02-03T01:04:20.920Z,62.1
2023-02-03T01:10:03.287Z,62
2023-02-03T01:15:39.241Z,61.9
2023-02-03T01:21:15.186Z,62.4
2023-02-03T01:27:11.327Z,62.8
2023-02-03T01:32:47.566Z,62.6
2023-02-03T01:38:28.322Z,62.1
2023-02-03T01:44:04.127Z,62
2023-02-03T01:49:42.424Z,62
2023-02-03T01:55:21.567Z,62.1
2023-02-03T02:00:58.591Z,62.4
2023-02-03T02:06:34.238Z,62.3
2023-02-03T02:12:15.019Z,62.7
2023-02-03T02:17:50.257Z,62.8
2023-02-03T02:23:25.073Z,62.2
2023-02-03T02:29:02.275Z,61.9
2023-02-03T02:34:50.978Z,61.7
2023-02-03T02:40:33.994Z,62.3
2023-02-03T02:46:12.093Z,62.7
2023-02-03T02:52:02.592Z,62.5
2023-02-03T02:57:37.742Z,62.5
2023-02-03T03:03:32.282Z,62.8
2023-02-03T03:09:16.359Z,62
2023-02-03T03:14:51.025Z,61.8
2023-02-03T03:20:30.813Z,62.1
2023-02-03T03:26:05.707Z,63.4
2023-02-03T03:31:41.385Z,63.6
2023-02-03T03:37:18.906Z,62.6
2023-02-03T03:42:55.125Z,62.6
2023-02-03T03:48:30.043Z,62.8
2023-02-03T03:54:31.321Z,63.6
2023-02-03T04:00:06.736Z,63.5
2023-02-03T04:05:46.816Z,62.9
2023-02-03T04:11:33.031Z,62.3
2023-02-03T04:17:08.544Z,62
2023-02-03T04:22:45.541Z,62.9
2023-02-03T04:28:21.463Z,62.5
2023-02-03T04:33:59.251Z,62.9
2023-02-03T04:39:36.646Z,63
2023-02-03T04:45:13.686Z,64
2023-02-03T04:50:49.290Z,63.8
2023-02-03T04:56:23.972Z,64.3
2023-02-03T05:01:58.648Z,64.4
2023-02-03T05:07:34.242Z,64.1
2023-02-03T05:13:21.297Z,63.8
2023-02-03T05:19:03.555Z,63.3
2023-02-03T05:25:00.792Z,63.2
2023-02-03T05:30:38.924Z,63.1
2023-02-03T05:36:37.092Z,63.1
2023-02-03T05:42:12.395Z,63.4
2023-02-03T05:47:47.058Z,64.3
2023-02-03T05:53:21.958Z,64.4
2023-02-03T05:58:56.923Z,63.8
2023-02-03T06:04:33.210Z,63.4
2023-02-03T06:10:30.014Z,63.3
2023-02-03T06:16:08.421Z,62.8
2023-02-03T06:21:43.255Z,63.8
2023-02-03T06:27:18.464Z,64.3
2023-02-03T06:33:01.272Z,65.5
2023-02-03T06:38:37.155Z,65.3
2023-02-03T06:44:15.060Z,65.4
2023-02-03T06:49:49.993Z,65
2023-02-03T06:55:25.408Z,65.1
2023-02-03T07:01:01.307Z,64.7
2023-02-03T07:06:36.609Z,64
2023-02-03T07:12:33.870Z,67.4
2023-02-03T07:18:46.709Z,72.4
2023-02-03T07:24:24.564Z,73.1
2023-02-03T07:29:59.277Z,72.9
2023-02-03T07:35:48.335Z,73.6
2023-02-03T07:41:24.248Z,73.5
2023-02-03T07:47:12.955Z,74.8
2023-02-03T07:53:15.849Z,74.5
2023-02-03T07:58:59.751Z,74
2023-02-03T08:05:03.287Z,73.4
2023-02-03T08:10:41.494Z,74.2
2023-02-03T08:16:21.945Z,74.1
2023-02-03T08:21:57.384Z,72.8
2023-02-03T08:27:33.983Z,72.9
2023-02-03T08:33:12.103Z,73.1
2023-02-03T08:38:47.536Z,72.6
2023-02-03T08:44:28.761Z,72
2023-02-03T08:50:23.285Z,71.5
2023-02-03T08:56:05.619Z,72
2023-02-03T09:01:44.874Z,71.4
2023-02-03T09:07:38.988Z,71.7
2023-02-03T09:13:17.346Z,70.7
2023-02-03T09:18:52.566Z,70.1
2023-02-03T09:24:28.315Z,70.1
2023-02-03T09:30:04.151Z,69.9
2023-02-03T09:35:39.620Z,69.1
2023-02-03T09:41:15.420Z,69.7
2023-02-03T09:47:13.859Z,69.2
2023-02-03T09:52:47.503Z,68.7
2023-02-03T09:58:23.549Z,68.9
2023-02-03T10:04:00.255Z,67.3
2023-02-03T10:09:37.278Z,66.4
2023-02-03T10:15:25.183Z,66
2023-02-03T10:21:00.601Z,67.3
2023-02-03T10:27:25.728Z,65.4
2023-02-03T10:33:14.290Z,65.2
2023-02-03T10:38:49.082Z,64.5
2023-02-03T10:44:30.809Z,64.2
2023-02-03T10:50:06.548Z,62.8
2023-02-03T10:55:51.308Z,62.7
2023-02-03T11:01:45.585Z,60.5
2023-02-03T11:07:21.865Z,61
2023-02-03T11:12:57.016Z,60.8
2023-02-03T11:18:53.309Z,59.4
2023-02-03T11:24:28.851Z,60.6
2023-02-03T11:30:18.623Z,59.1
2023-02-03T11:36:01.112Z,59.2
2023-02-03T11:41:51.720Z,58.4
2023-02-03T11:47:59.162Z,57.7
2023-02-03T11:53:56.451Z,57.6
2023-02-03T11:59:36.498Z,58.2
2023-02-03T12:05:17.115Z,58.3
2023-02-03T12:11:03.174Z,60.9
2023-02-03T12:16:39.738Z,57
2023-02-03T12:22:16.361Z,55
2023-02-03T12:28:00.369Z,56.7
2023-02-03T12:33:37.225Z,56.7
2023-02-03T12:39:12.894Z,55.6
2023-02-03T12:44:48.251Z,55.4
2023-02-03T12:50:24.019Z,51.8
2023-02-03T12:56:04.414Z,51.9
2023-02-03T13:01:42.391Z,51
2023-02-03T13:07:43.953Z,49.2
2023-02-03T13:13:27.941Z,51
2023-02-03T13:19:04.663Z,49.7
2023-02-03T13:24:40.045Z,48.1
2023-02-03T13:30:20.499Z,47
2023-02-03T13:35:55.756Z,46.3
2023-02-03T13:41:32.080Z,47.4
2023-02-03T13:47:21.595Z,46.8
2023-02-03T13:52:57.741Z,44.5
2023-02-03T13:58:41.649Z,44.9
2023-02-03T14:04:17.037Z,44.3
2023-02-03T14:09:53.479Z,42.3
2023-02-03T14:16:11.552Z,40.8
2023-02-03T14:21:47.241Z,38.8
2023-02-03T14:27:22.471Z,39.5
2023-02-03T14:33:10.110Z,36.6
2023-02-03T14:38:59.371Z,34.8
2023-02-03T14:44:35.941Z,32
2023-02-03T14:50:20.582Z,30.1
2023-02-03T14:55:56.252Z,30.5
2023-02-03T15:01:38.952Z,30.6
2023-02-03T15:07:16.498Z,31.4
2023-02-03T15:12:51.425Z,32.2
2023-02-03T15:18:26.771Z,33.5
2023-02-03T15:24:02.604Z,31.2
2023-02-03T15:29:42.537Z,34.7
2023-02-03T15:35:17.869Z,42.3
2023-02-03T15:41:10.980Z,46.5
2023-02-03T15:46:47.359Z,47.7
2023-02-03T15:52:24.249Z,49.1
2023-02-03T15:57:59.698Z,52.2
2023-02-03T16:03:42.478Z,51.9
2023-02-03T16:09:18.033Z,53.1
2023-02-03T16:14:57.141Z,54.3
2023-02-03T16:20:35.925Z,55.1
2023-02-03T16:26:14.247Z,55.8
2023-02-03T16:31:49.719Z,56.8
2023-02-03T16:37:28.847Z,57.4
2023-02-03T16:43:05.859Z,57.7
2023-02-03T16:48:40.701Z,58.5
2023-02-03T16:54:21.045Z,59.6
2023-02-03T17:00:07.327Z,60.7
2023-02-03T17:05:55.645Z,61.8
2023-02-03T17:11:35.404Z,61.7
2023-02-03T17:17:10.351Z,61.9
2023-02-03T17:22:45.770Z,63.2
2023-02-03T17:28:20.690Z,63.3
2023-02-03T17:33:57.652Z,63.7
2023-02-03T17:54:25.269Z,66.4
2023-02-03T18:00:00.340Z,67.2
2023-02-03T18:05:35.397Z,67.5
2023-02-03T18:11:11.520Z,67.5
2023-02-03T18:16:49.871Z,68.1
2023-02-03T18:22:30.040Z,68.6
2023-02-03T18:28:05.092Z,68.7
2023-02-03T18:33:41.025Z,68.6
2023-02-03T18:39:16.763Z,68.7
2023-02-03T18:44:51.501Z,70.2
2023-02-03T18:50:27.857Z,70.4
2023-02-03T18:56:06.088Z,70.3
2023-02-03T19:01:43.859Z,70.4
2023-02-03T19:07:23.888Z,71
2023-02-03T19:13:03.764Z,70.8
2023-02-03T19:18:58.092Z,71
2023-02-03T19:24:40.584Z,71.5
2023-02-03T19:30:15.722Z,72.5
2023-02-03T19:35:59.778Z,72.3
2023-02-03T19:41:37.067Z,72.8
2023-02-03T19:47:34.090Z,72.3
2023-02-03T19:53:08.465Z,73.2
2023-02-03T19:58:43.748Z,74.6
2023-02-03T20:04:18.842Z,73.4
2023-02-03T20:09:57.469Z,73.3
2023-02-03T20:15:36.001Z,74.2
2023-02-03T20:21:21.193Z,74
2023-02-03T20:27:00.774Z,75.9
2023-02-03T20:32:37.023Z,75.1
2023-02-03T20:38:15.972Z,75.1
2023-02-03T20:44:06.761Z,74
2023-02-03T20:50:00.616Z,73.5
2023-02-03T20:56:22.082Z,76.7
2023-02-03T21:02:11.612Z,77
2023-02-03T21:07:47.367Z,75.1
2023-02-03T21:13:27.631Z,76.9
2023-02-03T21:19:03.607Z,75.8
2023-02-03T21:24:39.184Z,75.9
2023-02-03T21:30:22.998Z,76.8
2023-02-03T21:36:05.599Z,77.9
2023-02-03T21:41:41.040Z,77.8
2023-02-03T21:47:47.018Z,75
2023-02-03T21:53:19.750Z,71.4
2023-02-03T21:58:55.183Z,70.2
2023-02-03T22:05:18.797Z,69
2023-02-03T22:11:00.212Z,68.7
2023-02-03T22:16:41.253Z,67.7
2023-02-03T22:22:18.328Z,67.5
2023-02-03T22:27:54.595Z,67.2
2023-02-03T22:33:30.344Z,66.7
2023-02-03T22:39:17.077Z,66.2
2023-02-03T22:45:12.949Z,66.3
2023-02-03T22:50:47.933Z,66.9
2023-02-03T22:56:26.148Z,66.4
2023-02-03T23:02:01.892Z,66.7
2023-02-03T23:07:36.983Z,66.3
2023-02-03T23:13:11.925Z,66.2
2023-02-03T23:18:47.211Z,66.4
2023-02-03T23:24:22.103Z,66.7
2023-02-03T23:29:56.882Z,66.8
2023-02-03T23:35:47.837Z,66.3
2023-02-03T23:41:24.794Z,65.5
2023-02-03T23:47:24.350Z,65.3
2023-02-03T23:52:58.397Z,64.7
2023-02-03T23:58:33.736Z,65.2
